Upstream stations:
Downstream station:
SHEF ID: FLRK1 COTTONWOOD R NR FLORENCE, KS
STATION TYPE:
Regulating: Stage = 21.00, Flow = 9471
PRECIP STAGE STAGE(2) RIV-FLOW BAT-LOAD
in ft ft cfs volt
Ccp-Rev Ccp-Rev Ccp-Rev Ccp-Rev Ccp-Rev
(US/Central)
11/25 00:00 0.00 3.05 2.91 69 12.83
11/25 01:00 0.00 3.07 2.90 75 12.83
11/25 02:00 0.00 3.04 2.90 67 12.77
11/25 03:00 0.00 3.06 2.90 72 12.77
11/25 04:00 0.00 3.04 2.90 67 12.71
11/25 05:00 0.00 3.07 2.91 75 12.71
11/25 06:00 0.00 3.04 2.90 67 12.65
11/25 07:00 0.00 3.06 2.91 72 12.65
11/25 08:00 0.00 3.07 2.91 75 12.65
11/25 09:00 0.00 3.07 2.91 75 12.89
11/25 10:00 0.00 3.04 2.90 67 13.53
11/25 11:00 0.00 3.05 2.91 69 13.77
11/25 12:00 0.00 3.06 2.91 72 13.65
11/25 13:00 0.00 3.06 2.91 72 13.65
11/25 14:00 0.00 3.05 2.90 69 13.83
11/25 15:00 0.00 3.05 2.91 69 14.12
11/25 16:00 0.00 3.06 2.90 72 13.59
11/25 17:00 0.00 3.06 2.91 72 13.48
11/25 18:00 0.00 3.07 2.91 75 13.07
11/25 19:00 0.00 3.06 2.91 72 12.95
11/25 20:00 0.00 3.07 2.91 75 12.89
11/25 21:00 0.00 3.07 2.91 75 12.83
11/25 22:00 0.00 3.07 2.90 75 12.77
11/25 23:00 0.00 3.07 2.90 75 12.77